sensor_id;sensor_type;location;lat;lon;timestamp;P1;durP1;ratioP1;P2;durP2;ratioP2
15706;SDS011;7953;54.302;10.128;2023-02-21T00:00:14;12.00;;;2.37;;
15706;SDS011;7953;54.302;10.128;2023-02-21T00:02:59;9.93;;;2.23;;
15706;SDS011;7953;54.302;10.128;2023-02-21T00:05:43;7.20;;;2.00;;
15706;SDS011;7953;54.302;10.128;2023-02-21T00:08:29;8.67;;;2.80;;
15706;SDS011;7953;54.302;10.128;2023-02-21T00:11:14;9.23;;;2.50;;
15706;SDS011;7953;54.302;10.128;2023-02-21T00:13:58;11.20;;;2.20;;
15706;SDS011;7953;54.302;10.128;2023-02-21T00:16:43;9.90;;;3.03;;
15706;SDS011;7953;54.302;10.128;2023-02-21T00:19:27;6.57;;;2.43;;
15706;SDS011;7953;54.302;10.128;2023-02-21T00:22:11;10.03;;;2.70;;
15706;SDS011;7953;54.302;10.128;2023-02-21T00:24:57;13.67;;;3.40;;
15706;SDS011;7953;54.302;10.128;2023-02-21T00:27:42;11.77;;;3.33;;
15706;SDS011;7953;54.302;10.128;2023-02-21T00:30:27;9.57;;;2.73;;
15706;SDS011;7953;54.302;10.128;2023-02-21T00:33:11;17.90;;;3.23;;
15706;SDS011;7953;54.302;10.128;2023-02-21T00:35:55;13.83;;;3.10;;
15706;SDS011;7953;54.302;10.128;2023-02-21T00:38:39;20.57;;;4.37;;
15706;SDS011;7953;54.302;10.128;2023-02-21T00:41:25;17.27;;;3.97;;
15706;SDS011;7953;54.302;10.128;2023-02-21T00:44:10;18.27;;;4.57;;
15706;SDS011;7953;54.302;10.128;2023-02-21T00:46:56;13.77;;;3.77;;
15706;SDS011;7953;54.302;10.128;2023-02-21T00:49:40;15.90;;;3.83;;
15706;SDS011;7953;54.302;10.128;2023-02-21T00:52:25;15.63;;;3.50;;
15706;SDS011;7953;54.302;10.128;2023-02-21T00:55:09;18.20;;;4.07;;
15706;SDS011;7953;54.302;10.128;2023-02-21T00:57:55;9.87;;;3.17;;
15706;SDS011;7953;54.302;10.128;2023-02-21T01:00:40;10.17;;;2.87;;
15706;SDS011;7953;54.302;10.128;2023-02-21T01:03:24;12.27;;;3.90;;
15706;SDS011;7953;54.302;10.128;2023-02-21T01:06:09;13.40;;;3.27;;
15706;SDS011;7953;54.302;10.128;2023-02-21T01:08:54;14.53;;;3.57;;
15706;SDS011;7953;54.302;10.128;2023-02-21T01:11:38;17.90;;;3.73;;
15706;SDS011;7953;54.302;10.128;2023-02-21T01:14:25;10.63;;;2.80;;
15706;SDS011;7953;54.302;10.128;2023-02-21T01:17:10;16.10;;;4.40;;
15706;SDS011;7953;54.302;10.128;2023-02-21T01:19:54;15.33;;;3.07;;
15706;SDS011;7953;54.302;10.128;2023-02-21T01:22:38;13.37;;;3.37;;
15706;SDS011;7953;54.302;10.128;2023-02-21T01:25:22;12.70;;;3.20;;
15706;SDS011;7953;54.302;10.128;2023-02-21T01:28:07;14.30;;;3.33;;
15706;SDS011;7953;54.302;10.128;2023-02-21T01:30:52;12.83;;;3.70;;
15706;SDS011;7953;54.302;10.128;2023-02-21T01:33:37;14.43;;;3.43;;
15706;SDS011;7953;54.302;10.128;2023-02-21T01:36:23;17.40;;;3.60;;
15706;SDS011;7953;54.302;10.128;2023-02-21T01:39:07;19.07;;;3.63;;
15706;SDS011;7953;54.302;10.128;2023-02-21T01:41:52;11.90;;;3.50;;
15706;SDS011;7953;54.302;10.128;2023-02-21T01:44:37;13.20;;;3.67;;
15706;SDS011;7953;54.302;10.128;2023-02-21T01:47:23;12.97;;;3.23;;
15706;SDS011;7953;54.302;10.128;2023-02-21T01:50:11;15.70;;;3.27;;
15706;SDS011;7953;54.302;10.128;2023-02-21T01:52:58;11.53;;;3.90;;
15706;SDS011;7953;54.302;10.128;2023-02-21T01:55:45;11.87;;;3.50;;
15706;SDS011;7953;54.302;10.128;2023-02-21T01:58:29;10.30;;;3.37;;
15706;SDS011;7953;54.302;10.128;2023-02-21T02:01:19;12.27;;;3.43;;
15706;SDS011;7953;54.302;10.128;2023-02-21T02:04:13;10.00;;;3.03;;
15706;SDS011;7953;54.302;10.128;2023-02-21T02:06:58;13.00;;;3.27;;
15706;SDS011;7953;54.302;10.128;2023-02-21T02:09:42;11.73;;;3.50;;
15706;SDS011;7953;54.302;10.128;2023-02-21T02:12:46;14.07;;;3.53;;
15706;SDS011;7953;54.302;10.128;2023-02-21T02:15:41;16.00;;;4.00;;
15706;SDS011;7953;54.302;10.128;2023-02-21T02:18:41;12.20;;;3.03;;
15706;SDS011;7953;54.302;10.128;2023-02-21T02:21:24;13.73;;;3.17;;
15706;SDS011;7953;54.302;10.128;2023-02-21T02:30:14;12.33;;;3.30;;
15706;SDS011;7953;54.302;10.128;2023-02-21T02:33:04;15.40;;;3.47;;
15706;SDS011;7953;54.302;10.128;2023-02-21T02:35:54;20.53;;;4.00;;
15706;SDS011;7953;54.302;10.128;2023-02-21T02:38:25;10.27;;;2.70;;
15706;SDS011;7953;54.302;10.128;2023-02-21T02:40:57;10.50;;;2.90;;
15706;SDS011;7953;54.302;10.128;2023-02-21T02:43:29;13.23;;;2.97;;
15706;SDS011;7953;54.302;10.128;2023-02-21T02:45:59;12.50;;;3.33;;
15706;SDS011;7953;54.302;10.128;2023-02-21T02:48:35;11.50;;;2.90;;
15706;SDS011;7953;54.302;10.128;2023-02-21T02:51:07;10.13;;;3.13;;
15706;SDS011;7953;54.302;10.128;2023-02-21T02:53:37;15.50;;;3.03;;
15706;SDS011;7953;54.302;10.128;2023-02-21T02:56:06;14.50;;;3.23;;
15706;SDS011;7953;54.302;10.128;2023-02-21T02:58:35;14.57;;;3.73;;
15706;SDS011;7953;54.302;10.128;2023-02-21T03:01:10;14.10;;;4.13;;
15706;SDS011;7953;54.302;10.128;2023-02-21T03:03:57;13.17;;;3.67;;
15706;SDS011;7953;54.302;10.128;2023-02-21T03:06:38;15.10;;;4.00;;
15706;SDS011;7953;54.302;10.128;2023-02-21T03:09:16;11.63;;;3.40;;
15706;SDS011;7953;54.302;10.128;2023-02-21T03:11:52;16.13;;;3.57;;
15706;SDS011;7953;54.302;10.128;2023-02-21T03:14:25;17.50;;;4.07;;
15706;SDS011;7953;54.302;10.128;2023-02-21T03:17:00;21.20;;;3.70;;
15706;SDS011;7953;54.302;10.128;2023-02-21T03:19:32;16.33;;;4.43;;
15706;SDS011;7953;54.302;10.128;2023-02-21T03:22:04;17.57;;;4.57;;
15706;SDS011;7953;54.302;10.128;2023-02-21T03:24:34;22.47;;;5.00;;
15706;SDS011;7953;54.302;10.128;2023-02-21T03:27:03;16.87;;;4.63;;
15706;SDS011;7953;54.302;10.128;2023-02-21T03:29:31;16.63;;;3.57;;
15706;SDS011;7953;54.302;10.128;2023-02-21T03:32:00;12.97;;;3.50;;
15706;SDS011;7953;54.302;10.128;2023-02-21T03:34:34;16.67;;;4.03;;
15706;SDS011;7953;54.302;10.128;2023-02-21T03:37:03;13.20;;;4.00;;
15706;SDS011;7953;54.302;10.128;2023-02-21T03:39:30;21.00;;;3.67;;
15706;SDS011;7953;54.302;10.128;2023-02-21T03:41:57;20.27;;;3.73;;
15706;SDS011;7953;54.302;10.128;2023-02-21T03:44:24;20.60;;;4.07;;
15706;SDS011;7953;54.302;10.128;2023-02-21T03:46:52;19.00;;;3.90;;
15706;SDS011;7953;54.302;10.128;2023-02-21T03:49:19;22.13;;;4.13;;
15706;SDS011;7953;54.302;10.128;2023-02-21T03:51:46;20.23;;;3.83;;
15706;SDS011;7953;54.302;10.128;2023-02-21T03:54:14;22.03;;;4.30;;
15706;SDS011;7953;54.302;10.128;2023-02-21T03:56:41;19.90;;;4.00;;
15706;SDS011;7953;54.302;10.128;2023-02-21T03:59:08;15.30;;;4.43;;
15706;SDS011;7953;54.302;10.128;2023-02-21T04:01:35;23.30;;;4.33;;
15706;SDS011;7953;54.302;10.128;2023-02-21T04:04:02;18.07;;;3.83;;
15706;SDS011;7953;54.302;10.128;2023-02-21T04:06:28;18.70;;;3.77;;
15706;SDS011;7953;54.302;10.128;2023-02-21T04:08:55;21.20;;;4.53;;
15706;SDS011;7953;54.302;10.128;2023-02-21T04:11:23;17.20;;;4.23;;
15706;SDS011;7953;54.302;10.128;2023-02-21T04:13:51;15.63;;;3.63;;
15706;SDS011;7953;54.302;10.128;2023-02-21T04:16:18;23.50;;;4.10;;
15706;SDS011;7953;54.302;10.128;2023-02-21T04:18:44;25.20;;;3.97;;
15706;SDS011;7953;54.302;10.128;2023-02-21T04:21:14;28.07;;;4.67;;
15706;SDS011;7953;54.302;10.128;2023-02-21T04:23:42;24.47;;;5.40;;
15706;SDS011;7953;54.302;10.128;2023-02-21T04:26:08;19.93;;;4.37;;
15706;SDS011;7953;54.302;10.128;2023-02-21T04:28:37;19.80;;;4.13;;
15706;SDS011;7953;54.302;10.128;2023-02-21T04:31:04;19.27;;;3.77;;
15706;SDS011;7953;54.302;10.128;2023-02-21T04:33:30;23.67;;;4.77;;
15706;SDS011;7953;54.302;10.128;2023-02-21T04:35:57;15.27;;;3.33;;
15706;SDS011;7953;54.302;10.128;2023-02-21T04:38:24;14.47;;;4.27;;
15706;SDS011;7953;54.302;10.128;2023-02-21T04:40:51;21.00;;;3.77;;
15706;SDS011;7953;54.302;10.128;2023-02-21T04:43:18;17.90;;;5.13;;
15706;SDS011;7953;54.302;10.128;2023-02-21T04:45:47;9.57;;;3.73;;
15706;SDS011;7953;54.302;10.128;2023-02-21T04:48:14;20.17;;;4.33;;
15706;SDS011;7953;54.302;10.128;2023-02-21T04:50:41;23.23;;;4.50;;
15706;SDS011;7953;54.302;10.128;2023-02-21T04:53:08;16.50;;;4.23;;
15706;SDS011;7953;54.302;10.128;2023-02-21T04:55:35;24.20;;;4.40;;
15706;SDS011;7953;54.302;10.128;2023-02-21T04:58:02;15.80;;;3.90;;
15706;SDS011;7953;54.302;10.128;2023-02-21T05:00:29;27.80;;;4.47;;
15706;SDS011;7953;54.302;10.128;2023-02-21T05:02:57;26.23;;;4.90;;
15706;SDS011;7953;54.302;10.128;2023-02-21T05:05:25;24.07;;;5.50;;
15706;SDS011;7953;54.302;10.128;2023-02-21T05:07:52;26.67;;;4.83;;
15706;SDS011;7953;54.302;10.128;2023-02-21T05:10:19;23.30;;;4.17;;
15706;SDS011;7953;54.302;10.128;2023-02-21T05:12:46;21.40;;;3.80;;
15706;SDS011;7953;54.302;10.128;2023-02-21T05:15:13;20.33;;;3.80;;
15706;SDS011;7953;54.302;10.128;2023-02-21T05:17:40;19.27;;;4.87;;
15706;SDS011;7953;54.302;10.128;2023-02-21T05:20:09;20.40;;;5.20;;
15706;SDS011;7953;54.302;10.128;2023-02-21T05:22:36;25.07;;;4.90;;
15706;SDS011;7953;54.302;10.128;2023-02-21T05:25:05;23.40;;;4.57;;
15706;SDS011;7953;54.302;10.128;2023-02-21T05:27:32;19.17;;;4.43;;
15706;SDS011;7953;54.302;10.128;2023-02-21T05:29:59;19.13;;;4.83;;
15706;SDS011;7953;54.302;10.128;2023-02-21T05:32:26;22.27;;;5.03;;
15706;SDS011;7953;54.302;10.128;2023-02-21T05:34:54;21.90;;;5.50;;
15706;SDS011;7953;54.302;10.128;2023-02-21T05:37:22;20.80;;;4.37;;
15706;SDS011;7953;54.302;10.128;2023-02-21T05:39:49;19.80;;;4.67;;
15706;SDS011;7953;54.302;10.128;2023-02-21T05:42:16;33.80;;;5.10;;
15706;SDS011;7953;54.302;10.128;2023-02-21T05:44:43;27.87;;;5.17;;
15706;SDS011;7953;54.302;10.128;2023-02-21T05:47:10;19.97;;;4.77;;
15706;SDS011;7953;54.302;10.128;2023-02-21T05:49:37;22.83;;;4.77;;
15706;SDS011;7953;54.302;10.128;2023-02-21T05:52:04;29.57;;;6.07;;
15706;SDS011;7953;54.302;10.128;2023-02-21T05:54:32;27.00;;;5.20;;
15706;SDS011;7953;54.302;10.128;2023-02-21T05:56:59;23.63;;;5.00;;
15706;SDS011;7953;54.302;10.128;2023-02-21T05:59:26;29.10;;;6.50;;
15706;SDS011;7953;54.302;10.128;2023-02-21T06:01:53;27.13;;;5.10;;
15706;SDS011;7953;54.302;10.128;2023-02-21T06:04:21;22.73;;;4.03;;
15706;SDS011;7953;54.302;10.128;2023-02-21T06:06:48;26.77;;;5.83;;
15706;SDS011;7953;54.302;10.128;2023-02-21T06:09:15;17.80;;;5.17;;
15706;SDS011;7953;54.302;10.128;2023-02-21T06:11:44;30.03;;;5.03;;
15706;SDS011;7953;54.302;10.128;2023-02-21T06:14:13;21.17;;;4.60;;
15706;SDS011;7953;54.302;10.128;2023-02-21T06:16:42;21.83;;;5.63;;
15706;SDS011;7953;54.302;10.128;2023-02-21T06:19:10;27.93;;;6.73;;
15706;SDS011;7953;54.302;10.128;2023-02-21T06:21:38;31.53;;;5.50;;
15706;SDS011;7953;54.302;10.128;2023-02-21T06:24:06;23.70;;;4.90;;
15706;SDS011;7953;54.302;10.128;2023-02-21T06:26:33;21.53;;;4.80;;
15706;SDS011;7953;54.302;10.128;2023-02-21T06:29:02;18.60;;;3.93;;
15706;SDS011;7953;54.302;10.128;2023-02-21T06:31:30;27.33;;;4.43;;
15706;SDS011;7953;54.302;10.128;2023-02-21T06:33:57;27.10;;;5.47;;
15706;SDS011;7953;54.302;10.128;2023-02-21T06:36:25;19.50;;;4.30;;
15706;SDS011;7953;54.302;10.128;2023-02-21T06:38:54;25.53;;;5.33;;
15706;SDS011;7953;54.302;10.128;2023-02-21T06:41:23;22.57;;;4.23;;
15706;SDS011;7953;54.302;10.128;2023-02-21T06:43:51;22.17;;;4.33;;
15706;SDS011;7953;54.302;10.128;2023-02-21T06:46:21;24.93;;;5.30;;
15706;SDS011;7953;54.302;10.128;2023-02-21T06:48:49;21.13;;;5.37;;
15706;SDS011;7953;54.302;10.128;2023-02-21T06:51:16;21.43;;;5.00;;
15706;SDS011;7953;54.302;10.128;2023-02-21T06:53:46;25.47;;;4.53;;
15706;SDS011;7953;54.302;10.128;2023-02-21T06:56:15;30.13;;;5.90;;
15706;SDS011;7953;54.302;10.128;2023-02-21T06:58:42;22.43;;;4.57;;
15706;SDS011;7953;54.302;10.128;2023-02-21T07:01:09;27.70;;;4.70;;
15706;SDS011;7953;54.302;10.128;2023-02-21T07:03:39;23.80;;;4.57;;
15706;SDS011;7953;54.302;10.128;2023-02-21T07:06:08;29.53;;;5.20;;
15706;SDS011;7953;54.302;10.128;2023-02-21T07:08:35;23.13;;;4.47;;
15706;SDS011;7953;54.302;10.128;2023-02-21T07:11:02;24.33;;;4.43;;
15706;SDS011;7953;54.302;10.128;2023-02-21T07:13:29;24.03;;;4.97;;
15706;SDS011;7953;54.302;10.128;2023-02-21T07:15:56;18.60;;;3.97;;
15706;SDS011;7953;54.302;10.128;2023-02-21T07:18:23;25.03;;;6.07;;
15706;SDS011;7953;54.302;10.128;2023-02-21T07:20:51;27.83;;;4.23;;
15706;SDS011;7953;54.302;10.128;2023-02-21T07:23:18;23.33;;;5.07;;
15706;SDS011;7953;54.302;10.128;2023-02-21T07:25:45;29.77;;;5.00;;
15706;SDS011;7953;54.302;10.128;2023-02-21T07:28:12;27.73;;;5.17;;
15706;SDS011;7953;54.302;10.128;2023-02-21T07:30:39;26.77;;;5.23;;
15706;SDS011;7953;54.302;10.128;2023-02-21T07:33:06;20.10;;;5.03;;
15706;SDS011;7953;54.302;10.128;2023-02-21T07:35:33;30.47;;;5.53;;
15706;SDS011;7953;54.302;10.128;2023-02-21T07:38:01;21.53;;;4.33;;
15706;SDS011;7953;54.302;10.128;2023-02-21T07:40:28;22.27;;;5.77;;
15706;SDS011;7953;54.302;10.128;2023-02-21T07:42:55;23.00;;;4.90;;
15706;SDS011;7953;54.302;10.128;2023-02-21T07:45:22;18.73;;;4.57;;
15706;SDS011;7953;54.302;10.128;2023-02-21T07:47:49;28.07;;;4.90;;
15706;SDS011;7953;54.302;10.128;2023-02-21T07:50:17;26.73;;;6.13;;
15706;SDS011;7953;54.302;10.128;2023-02-21T07:52:44;22.03;;;4.87;;
15706;SDS011;7953;54.302;10.128;2023-02-21T07:55:13;24.43;;;5.40;;
15706;SDS011;7953;54.302;10.128;2023-02-21T07:57:39;25.23;;;4.83;;
15706;SDS011;7953;54.302;10.128;2023-02-21T08:00:07;26.80;;;5.27;;
15706;SDS011;7953;54.302;10.128;2023-02-21T08:02:34;24.60;;;5.67;;
15706;SDS011;7953;54.302;10.128;2023-02-21T08:05:01;26.57;;;5.13;;
15706;SDS011;7953;54.302;10.128;2023-02-21T08:07:30;18.97;;;4.53;;
15706;SDS011;7953;54.302;10.128;2023-02-21T08:09:57;25.10;;;4.97;;
15706;SDS011;7953;54.302;10.128;2023-02-21T08:12:25;19.93;;;5.43;;
15706;SDS011;7953;54.302;10.128;2023-02-21T08:14:52;33.70;;;5.37;;
15706;SDS011;7953;54.302;10.128;2023-02-21T08:17:19;30.73;;;7.27;;
15706;SDS011;7953;54.302;10.128;2023-02-21T08:19:46;26.93;;;6.43;;
15706;SDS011;7953;54.302;10.128;2023-02-21T08:22:12;20.43;;;5.20;;
15706;SDS011;7953;54.302;10.128;2023-02-21T08:24:39;22.23;;;4.37;;
15706;SDS011;7953;54.302;10.128;2023-02-21T08:27:06;19.20;;;4.30;;
15706;SDS011;7953;54.302;10.128;2023-02-21T08:29:34;22.30;;;4.80;;
15706;SDS011;7953;54.302;10.128;2023-02-21T08:32:01;26.70;;;4.90;;
15706;SDS011;7953;54.302;10.128;2023-02-21T08:34:28;25.27;;;5.70;;
15706;SDS011;7953;54.302;10.128;2023-02-21T08:36:55;30.20;;;6.40;;
15706;SDS011;7953;54.302;10.128;2023-02-21T08:39:22;26.07;;;5.87;;
15706;SDS011;7953;54.302;10.128;2023-02-21T08:41:49;24.33;;;5.13;;
15706;SDS011;7953;54.302;10.128;2023-02-21T08:44:16;19.83;;;4.50;;
15706;SDS011;7953;54.302;10.128;2023-02-21T08:46:47;25.60;;;5.40;;
15706;SDS011;7953;54.302;10.128;2023-02-21T08:49:14;20.30;;;5.50;;
15706;SDS011;7953;54.302;10.128;2023-02-21T08:51:41;23.13;;;5.17;;
15706;SDS011;7953;54.302;10.128;2023-02-21T08:54:08;23.13;;;5.90;;
15706;SDS011;7953;54.302;10.128;2023-02-21T08:56:35;25.20;;;5.60;;
15706;SDS011;7953;54.302;10.128;2023-02-21T08:59:02;27.93;;;5.13;;
15706;SDS011;7953;54.302;10.128;2023-02-21T09:01:30;24.53;;;5.07;;
15706;SDS011;7953;54.302;10.128;2023-02-21T09:03:59;23.50;;;5.33;;
15706;SDS011;7953;54.302;10.128;2023-02-21T09:06:26;28.83;;;5.37;;
15706;SDS011;7953;54.302;10.128;2023-02-21T09:08:53;18.20;;;3.87;;
15706;SDS011;7953;54.302;10.128;2023-02-21T09:11:20;24.40;;;5.87;;
15706;SDS011;7953;54.302;10.128;2023-02-21T09:13:47;24.30;;;5.13;;
15706;SDS011;7953;54.302;10.128;2023-02-21T09:16:14;30.27;;;5.47;;
15706;SDS011;7953;54.302;10.128;2023-02-21T09:18:41;24.33;;;5.43;;
15706;SDS011;7953;54.302;10.128;2023-02-21T09:21:09;21.60;;;5.00;;
15706;SDS011;7953;54.302;10.128;2023-02-21T09:23:36;22.90;;;5.10;;
15706;SDS011;7953;54.302;10.128;2023-02-21T09:26:03;22.67;;;5.60;;
15706;SDS011;7953;54.302;10.128;2023-02-21T09:28:30;28.87;;;5.00;;
15706;SDS011;7953;54.302;10.128;2023-02-21T09:30:56;23.77;;;5.27;;
15706;SDS011;7953;54.302;10.128;2023-02-21T09:33:23;31.00;;;5.43;;
15706;SDS011;7953;54.302;10.128;2023-02-21T09:35:50;20.37;;;5.33;;
15706;SDS011;7953;54.302;10.128;2023-02-21T09:38:19;24.93;;;4.77;;
15706;SDS011;7953;54.302;10.128;2023-02-21T09:40:47;24.77;;;6.17;;
15706;SDS011;7953;54.302;10.128;2023-02-21T09:43:22;24.87;;;5.17;;
15706;SDS011;7953;54.302;10.128;2023-02-21T09:45:57;18.93;;;4.40;;
15706;SDS011;7953;54.302;10.128;2023-02-21T09:48:27;20.67;;;5.70;;
15706;SDS011;7953;54.302;10.128;2023-02-21T09:50:55;23.53;;;5.00;;
15706;SDS011;7953;54.302;10.128;2023-02-21T09:53:26;19.40;;;4.87;;
15706;SDS011;7953;54.302;10.128;2023-02-21T09:55:56;26.00;;;6.33;;
15706;SDS011;7953;54.302;10.128;2023-02-21T09:58:25;25.97;;;4.93;;
15706;SDS011;7953;54.302;10.128;2023-02-21T10:00:52;24.10;;;5.30;;
15706;SDS011;7953;54.302;10.128;2023-02-21T10:03:31;27.40;;;5.33;;
15706;SDS011;7953;54.302;10.128;2023-02-21T10:06:10;23.43;;;4.77;;
15706;SDS011;7953;54.302;10.128;2023-02-21T10:08:49;23.00;;;4.70;;
15706;SDS011;7953;54.302;10.128;2023-02-21T10:11:23;27.13;;;4.53;;
15706;SDS011;7953;54.302;10.128;2023-02-21T10:14:00;20.33;;;4.80;;
15706;SDS011;7953;54.302;10.128;2023-02-21T10:16:33;24.80;;;5.50;;
15706;SDS011;7953;54.302;10.128;2023-02-21T10:19:06;23.80;;;5.23;;
15706;SDS011;7953;54.302;10.128;2023-02-21T10:21:40;27.70;;;5.00;;
15706;SDS011;7953;54.302;10.128;2023-02-21T10:24:12;23.97;;;4.63;;
15706;SDS011;7953;54.302;10.128;2023-02-21T10:26:40;18.90;;;5.10;;
15706;SDS011;7953;54.302;10.128;2023-02-21T10:29:15;18.03;;;4.50;;
15706;SDS011;7953;54.302;10.128;2023-02-21T10:31:46;19.20;;;4.43;;
15706;SDS011;7953;54.302;10.128;2023-02-21T10:34:19;27.43;;;5.13;;
15706;SDS011;7953;54.302;10.128;2023-02-21T10:36:48;23.90;;;5.00;;
15706;SDS011;7953;54.302;10.128;2023-02-21T10:39:18;16.83;;;3.90;;
15706;SDS011;7953;54.302;10.128;2023-02-21T10:41:48;22.03;;;4.83;;
15706;SDS011;7953;54.302;10.128;2023-02-21T10:44:17;23.00;;;4.50;;
15706;SDS011;7953;54.302;10.128;2023-02-21T10:46:48;26.20;;;5.53;;
15706;SDS011;7953;54.302;10.128;2023-02-21T10:49:24;21.83;;;4.50;;
15706;SDS011;7953;54.302;10.128;2023-02-21T10:52:08;21.73;;;4.47;;
15706;SDS011;7953;54.302;10.128;2023-02-21T10:54:38;23.23;;;5.10;;
15706;SDS011;7953;54.302;10.128;2023-02-21T10:57:06;26.83;;;4.73;;
15706;SDS011;7953;54.302;10.128;2023-02-21T10:59:36;22.93;;;4.43;;
15706;SDS011;7953;54.302;10.128;2023-02-21T11:02:22;34.30;;;5.20;;
15706;SDS011;7953;54.302;10.128;2023-02-21T11:04:54;22.43;;;5.03;;
15706;SDS011;7953;54.302;10.128;2023-02-21T11:07:31;20.83;;;4.80;;
15706;SDS011;7953;54.302;10.128;2023-02-21T11:10:00;17.57;;;4.10;;
15706;SDS011;7953;54.302;10.128;2023-02-21T11:12:27;20.90;;;5.70;;
15706;SDS011;7953;54.302;10.128;2023-02-21T11:18:01;17.43;;;3.80;;
15706;SDS011;7953;54.302;10.128;2023-02-21T11:20:36;20.77;;;5.00;;
15706;SDS011;7953;54.302;10.128;2023-02-21T11:23:03;27.90;;;5.27;;
15706;SDS011;7953;54.302;10.128;2023-02-21T11:25:43;22.97;;;5.47;;
15706;SDS011;7953;54.302;10.128;2023-02-21T11:28:16;25.20;;;5.90;;
15706;SDS011;7953;54.302;10.128;2023-02-21T11:30:47;18.73;;;5.33;;
15706;SDS011;7953;54.302;10.128;2023-02-21T11:33:17;29.43;;;6.00;;
15706;SDS011;7953;54.302;10.128;2023-02-21T11:35:46;19.47;;;4.57;;
15706;SDS011;7953;54.302;10.128;2023-02-21T11:38:29;23.47;;;5.37;;
15706;SDS011;7953;54.302;10.128;2023-02-21T11:41:01;24.70;;;5.03;;
15706;SDS011;7953;54.302;10.128;2023-02-21T11:43:28;19.10;;;4.67;;
15706;SDS011;7953;54.302;10.128;2023-02-21T11:45:59;26.40;;;4.47;;
15706;SDS011;7953;54.302;10.128;2023-02-21T11:48:42;22.13;;;4.83;;
15706;SDS011;7953;54.302;10.128;2023-02-21T11:51:17;18.00;;;4.73;;
15706;SDS011;7953;54.302;10.128;2023-02-21T11:53:54;16.80;;;4.90;;
15706;SDS011;7953;54.302;10.128;2023-02-21T11:56:27;29.73;;;5.80;;
15706;SDS011;7953;54.302;10.128;2023-02-21T11:59:02;21.07;;;4.93;;
15706;SDS011;7953;54.302;10.128;2023-02-21T12:01:39;23.27;;;4.70;;
15706;SDS011;7953;54.302;10.128;2023-02-21T12:04:18;21.53;;;5.23;;
15706;SDS011;7953;54.302;10.128;2023-02-21T12:07:07;18.97;;;4.30;;
15706;SDS011;7953;54.302;10.128;2023-02-21T12:09:42;21.27;;;4.30;;
15706;SDS011;7953;54.302;10.128;2023-02-21T12:12:27;24.17;;;4.67;;
15706;SDS011;7953;54.302;10.128;2023-02-21T12:15:00;26.20;;;4.63;;
15706;SDS011;7953;54.302;10.128;2023-02-21T12:17:50;20.87;;;5.07;;
15706;SDS011;7953;54.302;10.128;2023-02-21T12:20:36;18.87;;;4.30;;
15706;SDS011;7953;54.302;10.128;2023-02-21T12:23:16;18.40;;;5.00;;
15706;SDS011;7953;54.302;10.128;2023-02-21T12:25:56;18.73;;;4.33;;
15706;SDS011;7953;54.302;10.128;2023-02-21T12:28:39;24.43;;;4.83;;
15706;SDS011;7953;54.302;10.128;2023-02-21T12:31:22;18.27;;;5.27;;
15706;SDS011;7953;54.302;10.128;2023-02-21T12:34:00;19.53;;;4.73;;
15706;SDS011;7953;54.302;10.128;2023-02-21T12:36:41;19.60;;;4.77;;
15706;SDS011;7953;54.302;10.128;2023-02-21T12:39:22;19.20;;;3.90;;
15706;SDS011;7953;54.302;10.128;2023-02-21T12:42:14;26.37;;;4.80;;
15706;SDS011;7953;54.302;10.128;2023-02-21T12:45:01;21.33;;;5.00;;
15706;SDS011;7953;54.302;10.128;2023-02-21T12:47:41;23.27;;;5.03;;
15706;SDS011;7953;54.302;10.128;2023-02-21T12:50:14;27.90;;;6.10;;
15706;SDS011;7953;54.302;10.128;2023-02-21T12:52:48;27.73;;;5.20;;
15706;SDS011;7953;54.302;10.128;2023-02-21T12:55:28;20.73;;;4.20;;
15706;SDS011;7953;54.302;10.128;2023-02-21T12:57:59;22.80;;;4.43;;
15706;SDS011;7953;54.302;10.128;2023-02-21T13:00:31;25.27;;;5.43;;
15706;SDS011;7953;54.302;10.128;2023-02-21T13:03:04;21.30;;;4.50;;
15706;SDS011;7953;54.302;10.128;2023-02-21T13:05:43;20.07;;;5.00;;
15706;SDS011;7953;54.302;10.128;2023-02-21T13:08:13;21.00;;;5.77;;
15706;SDS011;7953;54.302;10.128;2023-02-21T13:10:48;20.77;;;4.43;;
15706;SDS011;7953;54.302;10.128;2023-02-21T13:13:20;25.70;;;5.50;;
15706;SDS011;7953;54.302;10.128;2023-02-21T13:15:52;23.20;;;4.80;;
15706;SDS011;7953;54.302;10.128;2023-02-21T13:18:22;23.90;;;4.67;;
15706;SDS011;7953;54.302;10.128;2023-02-21T13:20:54;22.50;;;5.30;;
15706;SDS011;7953;54.302;10.128;2023-02-21T13:23:38;20.77;;;4.77;;
15706;SDS011;7953;54.302;10.128;2023-02-21T13:26:35;23.27;;;4.60;;
15706;SDS011;7953;54.302;10.128;2023-02-21T13:29:12;17.93;;;4.53;;
15706;SDS011;7953;54.302;10.128;2023-02-21T13:31:45;21.47;;;4.83;;
15706;SDS011;7953;54.302;10.128;2023-02-21T13:34:17;19.03;;;4.20;;
15706;SDS011;7953;54.302;10.128;2023-02-21T13:36:48;19.50;;;4.67;;
15706;SDS011;7953;54.302;10.128;2023-02-21T13:39:16;15.73;;;4.23;;
15706;SDS011;7953;54.302;10.128;2023-02-21T13:41:47;19.83;;;5.17;;
15706;SDS011;7953;54.302;10.128;2023-02-21T13:44:17;18.73;;;4.37;;
15706;SDS011;7953;54.302;10.128;2023-02-21T13:47:01;19.30;;;4.17;;
15706;SDS011;7953;54.302;10.128;2023-02-21T13:49:36;20.97;;;4.70;;
15706;SDS011;7953;54.302;10.128;2023-02-21T13:52:25;19.50;;;3.90;;
15706;SDS011;7953;54.302;10.128;2023-02-21T13:58:21;27.83;;;4.40;;
15706;SDS011;7953;54.302;10.128;2023-02-21T14:00:50;22.63;;;4.83;;
15706;SDS011;7953;54.302;10.128;2023-02-21T14:03:31;18.47;;;4.17;;
15706;SDS011;7953;54.302;10.128;2023-02-21T14:06:18;18.17;;;4.10;;
15706;SDS011;7953;54.302;10.128;2023-02-21T14:09:03;14.33;;;3.93;;
15706;SDS011;7953;54.302;10.128;2023-02-21T14:11:36;16.63;;;4.10;;
15706;SDS011;7953;54.302;10.128;2023-02-21T14:14:17;20.00;;;4.60;;
15706;SDS011;7953;54.302;10.128;2023-02-21T14:16:48;17.03;;;3.63;;
15706;SDS011;7953;54.302;10.128;2023-02-21T14:19:21;16.47;;;4.10;;
15706;SDS011;7953;54.302;10.128;2023-02-21T14:21:54;14.57;;;3.90;;
15706;SDS011;7953;54.302;10.128;2023-02-21T14:24:27;15.80;;;3.77;;
15706;SDS011;7953;54.302;10.128;2023-02-21T14:26:56;17.40;;;4.07;;
15706;SDS011;7953;54.302;10.128;2023-02-21T14:29:32;20.37;;;4.77;;
15706;SDS011;7953;54.302;10.128;2023-02-21T14:35:19;14.97;;;3.90;;
15706;SDS011;7953;54.302;10.128;2023-02-21T14:37:52;25.77;;;4.30;;
15706;SDS011;7953;54.302;10.128;2023-02-21T14:40:25;15.93;;;3.70;;
15706;SDS011;7953;54.302;10.128;2023-02-21T14:43:03;20.43;;;4.03;;
15706;SDS011;7953;54.302;10.128;2023-02-21T14:45:57;19.10;;;4.50;;
15706;SDS011;7953;54.302;10.128;2023-02-21T14:49:01;16.87;;;3.90;;
15706;SDS011;7953;54.302;10.128;2023-02-21T14:51:54;14.17;;;4.53;;
15706;SDS011;7953;54.302;10.128;2023-02-21T14:54:55;17.73;;;3.53;;
15706;SDS011;7953;54.302;10.128;2023-02-21T14:57:41;17.27;;;3.30;;
15706;SDS011;7953;54.302;10.128;2023-02-21T15:00:34;16.90;;;3.80;;
15706;SDS011;7953;54.302;10.128;2023-02-21T15:03:12;17.63;;;4.00;;
15706;SDS011;7953;54.302;10.128;2023-02-21T15:05:44;17.97;;;3.80;;
15706;SDS011;7953;54.302;10.128;2023-02-21T15:08:21;18.60;;;3.83;;
15706;SDS011;7953;54.302;10.128;2023-02-21T15:10:50;19.63;;;4.33;;
15706;SDS011;7953;54.302;10.128;2023-02-21T15:13:21;14.63;;;3.67;;
15706;SDS011;7953;54.302;10.128;2023-02-21T15:15:54;16.77;;;3.63;;
15706;SDS011;7953;54.302;10.128;2023-02-21T15:18:23;13.53;;;3.90;;
15706;SDS011;7953;54.302;10.128;2023-02-21T15:21:02;16.00;;;3.73;;
15706;SDS011;7953;54.302;10.128;2023-02-21T15:23:34;18.30;;;4.03;;
15706;SDS011;7953;54.302;10.128;2023-02-21T15:26:15;11.47;;;3.73;;
15706;SDS011;7953;54.302;10.128;2023-02-21T15:28:43;18.70;;;3.77;;